Time;durP1;ratioP1;P1;durP2;ratioP2;P2;SDS_P1;SDS_P2;PMS_P1;PMS_P2;Temp;Humidity;BMP_temperature;BMP_pressure;BME280_temperature;BME280_humidity;BME280_pressure;Samples;Min_cycle;Max_cycle;Signal;HPM_P1;HPM_P2
2022/06/28 00:00:14;;;;;;;;;;;28.70;41.20;;;;;;5099018;28;949;-39
2022/06/28 00:02:43;;;;;;;;;;;28.60;41.10;;;;;;5099161;28;1000;-36
2022/06/28 00:05:17;;;;;;;;;;;28.60;41.10;;;;;;5098293;28;1020;-38
2022/06/28 00:07:49;;;;;;;;;;;28.60;41.00;;;;;;5098188;28;1981;-39
2022/06/28 00:10:19;;;;;;;;;;;28.50;41.10;;;;;;5097179;28;1496;-38
2022/06/28 00:12:46;;;;;;;;;;;28.50;41.00;;;;;;5098512;28;1352;-38
2022/06/28 00:18:04;;;;;;;;;;;28.50;40.70;;;;;;5099228;28;1137;-36
2022/06/28 00:20:31;;;;;;;;;;;28.50;40.90;;;;;;5099411;28;1003;-39
2022/06/28 00:22:59;;;;;;;;;;;28.40;40.90;;;;;;5100216;28;996;-39
2022/06/28 00:25:26;;;;;;;;;;;28.50;41.00;;;;;;5099882;28;975;-36
2022/06/28 00:27:54;;;;;;;;;;;28.40;42.40;;;;;;5099663;28;1898;-37
2022/06/28 00:30:25;;;;;;;;;;;28.40;41.40;;;;;;5099889;28;1989;-40
2022/06/28 00:32:53;;;;;;;;;;;28.30;41.40;;;;;;5100313;28;1494;-40
2022/06/28 00:35:24;;;;;;;;;;;28.30;41.40;;;;;;5098914;28;2010;-37
2022/06/28 00:37:55;;;;;;;;;;;28.40;41.40;;;;;;5100212;28;1023;-38
2022/06/28 00:40:25;;;;;;;;;;;28.40;41.30;;;;;;5100128;28;1362;-39
2022/06/28 00:42:57;;;;;;;;;;;28.40;41.30;;;;;;5100277;28;899;-38
2022/06/28 00:45:25;;;;;;;;;;;28.40;41.40;;;;;;5099943;28;1958;-39
2022/06/28 00:50:39;;;;;;;;;;;28.40;41.40;;;;;;5098006;28;1143;-39
2022/06/28 00:53:10;;;;;;;;;;;28.50;41.30;;;;;;5098142;28;987;-36
2022/06/28 00:55:37;;;;;;;;;;;28.50;41.30;;;;;;5098340;28;2042;-38
2022/06/28 00:58:05;;;;;;;;;;;28.40;41.40;;;;;;5097223;28;1004;-39
2022/06/28 01:00:41;;;;;;;;;;;28.40;41.30;;;;;;5097427;28;1122;-35
2022/06/28 01:03:08;;;;;;;;;;;28.40;41.20;;;;;;5099696;28;841;-37
2022/06/28 01:05:36;;;;;;;;;;;28.40;41.30;;;;;;5097910;28;1885;-43
2022/06/28 01:08:04;;;;;;;;;;;28.40;41.40;;;;;;5096992;28;1993;-37
2022/06/28 01:10:31;;;;;;;;;;;28.20;41.40;;;;;;5097757;28;1032;-38
2022/06/28 01:12:58;;;;;;;;;;;28.10;41.70;;;;;;5097508;28;999;-37
2022/06/28 01:15:24;;;;;;;;;;;28.00;42.10;;;;;;5096872;28;924;-39
2022/06/28 01:17:52;;;;;;;;;;;28.00;42.20;;;;;;5096797;28;1258;-37
2022/06/28 01:20:19;;;;;;;;;;;28.00;42.30;;;;;;5097079;28;992;-38
2022/06/28 01:22:47;;;;;;;;;;;27.90;42.40;;;;;;5096379;28;992;-37
2022/06/28 01:25:14;;;;;;;;;;;28.00;42.40;;;;;;5095945;28;951;-38
2022/06/28 01:27:41;;;;;;;;;;;27.90;42.20;;;;;;5095774;28;1983;-38
2022/06/28 01:30:08;;;;;;;;;;;28.00;42.40;;;;;;5096497;28;1075;-37
2022/06/28 01:32:35;;;;;;;;;;;28.00;42.30;;;;;;5096563;28;1041;-38
2022/06/28 01:35:02;;;;;;;;;;;28.00;42.30;;;;;;5096585;28;1052;-37
2022/06/28 01:37:29;;;;;;;;;;;28.00;42.50;;;;;;5096639;28;974;-37
2022/06/28 01:39:57;;;;;;;;;;;28.00;42.40;;;;;;5096958;28;947;-37
2022/06/28 01:42:24;;;;;;;;;;;27.90;42.60;;;;;;5096749;28;971;-38
2022/06/28 01:44:51;;;;;;;;;;;28.00;42.50;;;;;;5096990;28;1005;-37
2022/06/28 01:47:19;;;;;;;;;;;28.00;42.40;;;;;;5097137;28;1018;-37
2022/06/28 01:49:46;;;;;;;;;;;28.00;42.40;;;;;;5096607;28;1906;-37
2022/06/28 01:52:12;;;;;;;;;;;28.00;42.40;;;;;;5096711;28;947;-37
2022/06/28 01:54:39;;;;;;;;;;;28.00;42.30;;;;;;5097655;28;933;-38
2022/06/28 01:57:07;;;;;;;;;;;28.10;42.30;;;;;;5096993;28;939;-38
2022/06/28 01:59:34;;;;;;;;;;;28.10;42.30;;;;;;5096434;28;970;-37
2022/06/28 02:02:01;;;;;;;;;;;28.00;42.60;;;;;;5095558;28;1008;-39
2022/06/28 02:04:28;;;;;;;;;;;28.00;42.60;;;;;;5097262;28;984;-37
2022/06/28 02:06:55;;;;;;;;;;;27.90;42.60;;;;;;5096466;28;1019;-38
2022/06/28 02:09:22;;;;;;;;;;;28.00;42.60;;;;;;5096769;28;1905;-37
2022/06/28 02:11:49;;;;;;;;;;;28.00;42.40;;;;;;5096779;28;1004;-37
2022/06/28 02:14:18;;;;;;;;;;;28.00;42.50;;;;;;5097212;28;991;-37
2022/06/28 02:16:44;;;;;;;;;;;28.00;42.50;;;;;;5096386;28;1000;-38
2022/06/28 02:19:11;;;;;;;;;;;28.00;42.40;;;;;;5097054;28;1143;-37
2022/06/28 02:21:39;;;;;;;;;;;28.00;42.60;;;;;;5096087;28;971;-37
2022/06/28 02:24:06;;;;;;;;;;;28.00;42.50;;;;;;5097080;28;1011;-38
2022/06/28 02:26:33;;;;;;;;;;;28.00;42.60;;;;;;5096678;28;1057;-38
2022/06/28 02:29:00;;;;;;;;;;;28.00;42.70;;;;;;5096807;28;1906;-39
2022/06/28 02:31:28;;;;;;;;;;;28.00;42.60;;;;;;5096813;28;981;-38
2022/06/28 02:33:55;;;;;;;;;;;28.00;42.70;;;;;;5096808;28;1018;-37
2022/06/28 02:41:50;;;;;;;;;;;28.10;42.30;;;;;;5085279;28;1152;-37
2022/06/28 02:44:17;;;;;;;;;;;28.00;42.40;;;;;;5100727;28;1058;-37
2022/06/28 02:46:46;;;;;;;;;;;28.00;42.60;;;;;;5101171;28;928;-38
2022/06/28 02:49:13;;;;;;;;;;;28.00;42.60;;;;;;5101163;28;1985;-38
2022/06/28 02:54:53;;;;;;;;;;;28.10;42.50;;;;;;5101025;28;915;-38
2022/06/28 02:57:19;;;;;;;;;;;28.00;42.50;;;;;;5101255;28;1038;-37
2022/06/28 02:59:46;;;;;;;;;;;28.10;42.60;;;;;;5100780;28;1264;-38
2022/06/28 03:02:14;;;;;;;;;;;28.10;42.40;;;;;;5100585;28;1860;-38
2022/06/28 03:04:41;;;;;;;;;;;28.00;42.40;;;;;;5100962;28;968;-38
2022/06/28 03:07:07;;;;;;;;;;;28.00;42.50;;;;;;5100927;28;972;-37
2022/06/28 03:09:34;;;;;;;;;;;28.00;42.40;;;;;;5101024;28;1980;-37
2022/06/28 03:12:01;;;;;;;;;;;28.00;42.70;;;;;;5100712;28;932;-38
2022/06/28 03:14:28;;;;;;;;;;;28.00;42.50;;;;;;5100329;28;1003;-37
2022/06/28 03:16:54;;;;;;;;;;;28.00;42.40;;;;;;5100155;28;947;-38
2022/06/28 03:19:23;;;;;;;;;;;28.00;42.50;;;;;;5099932;28;1213;-38
2022/06/28 03:21:49;;;;;;;;;;;28.00;42.50;;;;;;5100738;28;982;-37
2022/06/28 03:24:16;;;;;;;;;;;28.00;42.50;;;;;;5100574;28;987;-38
2022/06/28 03:26:43;;;;;;;;;;;28.00;42.50;;;;;;5100161;28;968;-37
2022/06/28 03:29:10;;;;;;;;;;;28.00;42.60;;;;;;5100251;28;1894;-38
2022/06/28 03:31:36;;;;;;;;;;;27.90;42.60;;;;;;5100454;28;924;-37
2022/06/28 03:34:03;;;;;;;;;;;28.00;42.60;;;;;;5100279;28;995;-37
2022/06/28 03:36:31;;;;;;;;;;;28.00;42.50;;;;;;5098949;28;1000;-37
2022/06/28 03:38:58;;;;;;;;;;;28.00;42.60;;;;;;5099449;28;939;-37
2022/06/28 03:41:25;;;;;;;;;;;27.90;42.50;;;;;;5098910;28;980;-37
2022/06/28 03:43:53;;;;;;;;;;;27.90;42.60;;;;;;5099015;28;979;-37
2022/06/28 03:46:19;;;;;;;;;;;28.00;42.60;;;;;;5098287;28;995;-37
2022/06/28 03:48:47;;;;;;;;;;;28.00;42.60;;;;;;5097964;28;1992;-37
2022/06/28 03:51:14;;;;;;;;;;;27.90;42.60;;;;;;5098021;28;1003;-38
2022/06/28 03:53:42;;;;;;;;;;;27.90;42.50;;;;;;5098201;28;949;-37
2022/06/28 03:56:10;;;;;;;;;;;28.00;42.50;;;;;;5098830;28;944;-38
2022/06/28 03:58:37;;;;;;;;;;;27.90;42.60;;;;;;5098720;28;983;-40
2022/06/28 04:01:04;;;;;;;;;;;28.00;42.60;;;;;;5099134;28;1015;-38
2022/06/28 04:03:30;;;;;;;;;;;27.90;42.60;;;;;;5098491;28;913;-37
2022/06/28 04:05:57;;;;;;;;;;;28.00;42.40;;;;;;5098828;28;947;-38
2022/06/28 04:08:24;;;;;;;;;;;28.00;42.40;;;;;;5098016;28;1902;-39
2022/06/28 04:11:13;;;;;;;;;;;27.90;42.50;;;;;;5098814;28;1023;-37
2022/06/28 04:13:39;;;;;;;;;;;27.90;42.60;;;;;;5098807;28;1498;-37
2022/06/28 04:16:06;;;;;;;;;;;27.90;42.60;;;;;;5099224;28;960;-38
2022/06/28 04:18:33;;;;;;;;;;;27.90;42.60;;;;;;5098777;28;1260;-37
2022/06/28 04:20:59;;;;;;;;;;;27.90;42.80;;;;;;5099101;28;929;-37
2022/06/28 04:23:26;;;;;;;;;;;27.90;42.70;;;;;;5099373;28;999;-36
2022/06/28 04:25:55;;;;;;;;;;;27.80;42.70;;;;;;5098955;28;956;-38
2022/06/28 04:28:22;;;;;;;;;;;27.80;42.80;;;;;;5098997;28;1971;-40
2022/06/28 04:30:48;;;;;;;;;;;27.80;42.80;;;;;;5097610;28;921;-37
2022/06/28 04:33:15;;;;;;;;;;;27.90;42.70;;;;;;5099853;28;967;-37
2022/06/28 04:35:42;;;;;;;;;;;27.90;42.70;;;;;;5097898;28;1008;-37
2022/06/28 04:38:09;;;;;;;;;;;28.00;42.60;;;;;;5099009;28;1010;-37
2022/06/28 04:40:35;;;;;;;;;;;28.00;42.40;;;;;;5098859;28;1009;-39
2022/06/28 04:43:03;;;;;;;;;;;28.10;42.40;;;;;;5098910;28;1862;-38
2022/06/28 04:45:30;;;;;;;;;;;28.00;42.40;;;;;;5098693;28;994;-38
2022/06/28 04:47:57;;;;;;;;;;;28.00;42.40;;;;;;5098786;28;962;-39
2022/06/28 04:50:24;;;;;;;;;;;28.00;42.40;;;;;;5098159;28;2026;-37
2022/06/28 04:52:51;;;;;;;;;;;28.00;42.50;;;;;;5098692;28;983;-37
2022/06/28 04:55:18;;;;;;;;;;;28.10;43.00;;;;;;5097808;28;1396;-37
2022/06/28 04:57:44;;;;;;;;;;;28.00;42.40;;;;;;5097617;28;980;-38
2022/06/28 05:00:13;;;;;;;;;;;28.10;42.30;;;;;;5098054;28;990;-38
2022/06/28 05:02:40;;;;;;;;;;;28.10;42.20;;;;;;5097587;28;881;-37
2022/06/28 05:05:07;;;;;;;;;;;28.30;42.10;;;;;;5097691;28;1005;-37
2022/06/28 05:07:34;;;;;;;;;;;28.40;41.90;;;;;;5098055;28;1004;-38
2022/06/28 05:10:01;;;;;;;;;;;28.40;41.70;;;;;;5097423;28;1901;-37
2022/06/28 05:12:28;;;;;;;;;;;28.40;41.70;;;;;;5096734;28;944;-37
2022/06/28 05:14:55;;;;;;;;;;;28.30;41.80;;;;;;5096720;28;1021;-37
2022/06/28 05:17:23;;;;;;;;;;;28.50;41.60;;;;;;5097152;28;1023;-39
2022/06/28 05:19:51;;;;;;;;;;;28.50;41.50;;;;;;5096316;28;1204;-39
2022/06/28 05:22:17;;;;;;;;;;;28.60;41.30;;;;;;5097417;28;996;-37
2022/06/28 05:24:44;;;;;;;;;;;28.60;41.30;;;;;;5096605;28;1016;-37
2022/06/28 05:27:11;;;;;;;;;;;28.70;41.10;;;;;;5096588;28;983;-39
2022/06/28 05:29:38;;;;;;;;;;;28.80;41.00;;;;;;5096730;28;1975;-37
2022/06/28 05:32:05;;;;;;;;;;;28.80;40.80;;;;;;5096228;28;943;-37
2022/06/28 05:34:33;;;;;;;;;;;28.80;40.80;;;;;;5096441;28;996;-38
2022/06/28 05:36:59;;;;;;;;;;;28.80;40.80;;;;;;5096715;28;1021;-39
2022/06/28 05:39:26;;;;;;;;;;;28.90;40.80;;;;;;5096700;28;978;-37
2022/06/28 05:41:53;;;;;;;;;;;29.00;40.50;;;;;;5096677;28;880;-37
2022/06/28 05:44:20;;;;;;;;;;;28.90;40.50;;;;;;5096319;28;995;-38
2022/06/28 05:46:50;;;;;;;;;;;29.00;40.60;;;;;;5096720;28;931;-38
2022/06/28 05:49:17;;;;;;;;;;;28.90;40.60;;;;;;5075636;28;1918;-37
2022/06/28 05:51:46;;;;;;;;;;;28.90;40.70;;;;;;5089644;28;1105;-38
2022/06/28 05:54:12;;;;;;;;;;;28.90;41.80;;;;;;5096881;28;996;-38
2022/06/28 05:56:39;;;;;;;;;;;28.90;40.80;;;;;;5095854;28;1140;-38
2022/06/28 05:59:06;;;;;;;;;;;28.80;40.70;;;;;;5096376;28;2012;-37
2022/06/28 06:01:33;;;;;;;;;;;28.90;40.70;;;;;;5096834;28;1031;-37
2022/06/28 06:04:00;;;;;;;;;;;28.90;40.70;;;;;;5096602;28;1053;-39
2022/06/28 06:06:27;;;;;;;;;;;28.90;40.70;;;;;;5096678;28;965;-37
2022/06/28 06:08:55;;;;;;;;;;;28.80;40.80;;;;;;5096272;28;1902;-37
2022/06/28 06:11:21;;;;;;;;;;;28.70;41.20;;;;;;5096422;28;959;-38
2022/06/28 06:13:48;;;;;;;;;;;28.70;41.30;;;;;;5095451;28;991;-37
2022/06/28 06:16:15;;;;;;;;;;;28.60;41.30;;;;;;5095099;28;1779;-38
2022/06/28 06:18:42;;;;;;;;;;;28.60;41.30;;;;;;5097713;28;1184;-40
2022/06/28 06:21:09;;;;;;;;;;;28.60;41.40;;;;;;5099827;28;1003;-37
2022/06/28 06:23:35;;;;;;;;;;;28.70;41.40;;;;;;5100266;28;980;-37
2022/06/28 06:26:04;;;;;;;;;;;28.80;41.30;;;;;;5100123;28;940;-38
2022/06/28 06:28:30;;;;;;;;;;;28.70;41.30;;;;;;5098650;28;994;-38
2022/06/28 06:30:57;;;;;;;;;;;28.70;41.20;;;;;;5099140;28;1906;-39
2022/06/28 06:33:24;;;;;;;;;;;28.80;41.20;;;;;;5099590;28;1006;-37
2022/06/28 06:35:50;;;;;;;;;;;28.80;41.20;;;;;;5097344;28;927;-38
2022/06/28 06:38:17;;;;;;;;;;;28.80;41.30;;;;;;5098581;28;1012;-38
2022/06/28 06:40:44;;;;;;;;;;;28.70;41.20;;;;;;5099740;28;1019;-39
2022/06/28 06:43:12;;;;;;;;;;;28.80;41.20;;;;;;5099965;28;1022;-38
2022/06/28 06:45:39;;;;;;;;;;;28.90;41.10;;;;;;5099239;28;1102;-37
2022/06/28 06:48:06;;;;;;;;;;;28.80;41.10;;;;;;5099445;28;1056;-37
2022/06/28 06:50:32;;;;;;;;;;;28.80;41.00;;;;;;5099744;28;1902;-37
2022/06/28 06:53:02;;;;;;;;;;;28.90;41.10;;;;;;5099552;28;984;-37
2022/06/28 06:55:29;;;;;;;;;;;28.80;40.90;;;;;;5099857;28;1061;-38
2022/06/28 06:57:55;;;;;;;;;;;28.80;40.90;;;;;;5098846;28;1003;-37
2022/06/28 07:00:24;;;;;;;;;;;28.80;41.20;;;;;;5097770;28;980;-38
2022/06/28 07:02:50;;;;;;;;;;;28.70;41.20;;;;;;5087507;28;971;-37
2022/06/28 07:05:17;;;;;;;;;;;28.70;41.40;;;;;;5081352;28;2416;-37
2022/06/28 07:07:44;;;;;;;;;;;28.70;41.40;;;;;;5083470;28;932;-38
2022/06/28 07:10:11;;;;;;;;;;;28.70;41.30;;;;;;5099072;28;1910;-38
2022/06/28 07:12:37;;;;;;;;;;;28.70;41.40;;;;;;5098264;28;1090;-37
2022/06/28 07:15:05;;;;;;;;;;;28.70;41.30;;;;;;5098592;28;1008;-38
2022/06/28 07:17:33;;;;;;;;;;;28.70;41.40;;;;;;5098608;28;1281;-37
2022/06/28 07:19:59;;;;;;;;;;;28.70;41.30;;;;;;5099447;28;948;-38
2022/06/28 07:22:26;;;;;;;;;;;28.70;41.30;;;;;;5098997;28;1010;-37
2022/06/28 07:24:56;;;;;;;;;;;28.80;41.30;;;;;;5098029;28;996;-37
2022/06/28 07:27:22;;;;;;;;;;;28.70;41.50;;;;;;5098417;28;954;-37
2022/06/28 07:29:50;;;;;;;;;;;28.90;41.20;;;;;;5098164;28;1906;-37
2022/06/28 07:32:16;;;;;;;;;;;28.80;41.30;;;;;;5098948;28;919;-38
2022/06/28 07:34:44;;;;;;;;;;;28.70;41.30;;;;;;5097952;28;932;-37
2022/06/28 07:37:11;;;;;;;;;;;28.70;41.40;;;;;;5097172;28;896;-38
2022/06/28 07:39:38;;;;;;;;;;;28.70;41.30;;;;;;5098423;28;1014;-38
2022/06/28 07:42:05;;;;;;;;;;;28.70;41.40;;;;;;5098522;28;1001;-38
2022/06/28 07:44:32;;;;;;;;;;;28.70;41.50;;;;;;5097932;28;1028;-37
2022/06/28 07:46:59;;;;;;;;;;;28.60;41.50;;;;;;5096510;28;1002;-38
2022/06/28 07:52:33;;;;;;;;;;;28.60;41.50;;;;;;5098499;28;1972;-37
2022/06/28 07:55:11;;;;;;;;;;;28.60;41.60;;;;;;5035418;28;1018;-37
2022/06/28 07:57:38;;;;;;;;;;;28.70;41.60;;;;;;5082429;28;1102;-38
2022/06/28 08:00:06;;;;;;;;;;;28.60;41.60;;;;;;5096479;28;935;-37
2022/06/28 08:02:33;;;;;;;;;;;28.60;41.60;;;;;;5095984;28;960;-37
2022/06/28 08:05:00;;;;;;;;;;;28.60;41.50;;;;;;5097495;28;936;-38
2022/06/28 08:07:28;;;;;;;;;;;28.60;41.50;;;;;;5097006;28;995;-38
2022/06/28 08:09:54;;;;;;;;;;;28.60;41.60;;;;;;5096077;28;1902;-37
2022/06/28 08:12:21;;;;;;;;;;;28.50;41.60;;;;;;5097033;28;1011;-37
2022/06/28 08:14:48;;;;;;;;;;;28.60;41.60;;;;;;5096229;28;1000;-38
2022/06/28 08:17:15;;;;;;;;;;;28.60;41.60;;;;;;5095687;28;995;-37
2022/06/28 08:19:42;;;;;;;;;;;28.60;41.60;;;;;;5096630;28;1166;-37
2022/06/28 08:22:09;;;;;;;;;;;28.60;41.60;;;;;;5094722;28;943;-37
2022/06/28 08:24:37;;;;;;;;;;;28.60;41.60;;;;;;5098044;28;1133;-38
2022/06/28 08:27:04;;;;;;;;;;;28.70;41.60;;;;;;5096666;28;893;-38
2022/06/28 08:29:32;;;;;;;;;;;28.70;41.50;;;;;;5095748;28;1000;-37
2022/06/28 08:31:59;;;;;;;;;;;28.70;41.40;;;;;;5096795;28;1974;-37
2022/06/28 08:34:26;;;;;;;;;;;28.70;41.60;;;;;;5096809;28;939;-37
2022/06/28 08:36:52;;;;;;;;;;;28.70;41.60;;;;;;5096881;28;1011;-38
2022/06/28 08:39:19;;;;;;;;;;;28.70;41.60;;;;;;5096544;28;986;-37
2022/06/28 08:41:48;;;;;;;;;;;28.60;41.60;;;;;;5095984;28;970;-38
2022/06/28 08:44:17;;;;;;;;;;;28.60;41.80;;;;;;5095752;28;957;-37
2022/06/28 08:46:45;;;;;;;;;;;28.60;41.80;;;;;;5096058;28;873;-37
2022/06/28 08:49:13;;;;;;;;;;;28.50;41.90;;;;;;5095194;28;983;-38
2022/06/28 08:51:41;;;;;;;;;;;28.50;42.00;;;;;;5095216;28;1910;-38
2022/06/28 08:54:08;;;;;;;;;;;28.50;41.80;;;;;;5094451;28;958;-38
2022/06/28 08:56:35;;;;;;;;;;;28.50;41.90;;;;;;5094145;28;1012;-38
2022/06/28 08:59:04;;;;;;;;;;;28.50;41.90;;;;;;5095258;28;958;-38
2022/06/28 09:01:30;;;;;;;;;;;28.50;42.00;;;;;;5095818;28;1005;-38
2022/06/28 09:04:00;;;;;;;;;;;28.60;41.90;;;;;;5096267;28;988;-37
2022/06/28 09:06:27;;;;;;;;;;;28.50;41.90;;;;;;5096533;28;956;-37
2022/06/28 09:08:53;;;;;;;;;;;28.60;41.80;;;;;;5096847;28;963;-39
2022/06/28 09:11:20;;;;;;;;;;;28.60;41.80;;;;;;5094716;28;1905;-38
2022/06/28 09:13:47;;;;;;;;;;;28.60;41.80;;;;;;5094953;28;1003;-37
2022/06/28 09:16:15;;;;;;;;;;;28.60;41.80;;;;;;5094654;28;1019;-38
2022/06/28 09:18:46;;;;;;;;;;;28.60;41.70;;;;;;5094107;28;1229;-38
2022/06/28 09:21:14;;;;;;;;;;;28.60;41.70;;;;;;5093782;28;960;-37
2022/06/28 09:23:42;;;;;;;;;;;28.60;41.60;;;;;;5095848;28;987;-38
2022/06/28 09:26:10;;;;;;;;;;;28.60;41.70;;;;;;5094731;28;1172;-41
2022/06/28 09:28:40;;;;;;;;;;;28.60;41.80;;;;;;5094274;28;979;-38
2022/06/28 09:31:18;;;;;;;;;;;28.60;41.90;;;;;;5094600;28;1910;-37
2022/06/28 09:33:45;;;;;;;;;;;28.60;41.90;;;;;;5095357;28;1010;-37
2022/06/28 09:36:13;;;;;;;;;;;28.50;41.80;;;;;;5087291;28;996;-38
2022/06/28 09:38:39;;;;;;;;;;;28.50;41.90;;;;;;5068797;28;871;-40
2022/06/28 09:41:18;;;;;;;;;;;28.50;42.00;;;;;;5070739;28;904;-37
2022/06/28 09:43:53;;;;;;;;;;;28.50;42.10;;;;;;5069693;28;964;-39
2022/06/28 09:46:23;;;;;;;;;;;28.50;43.20;;;;;;5069281;28;889;-37
2022/06/28 09:48:49;;;;;;;;;;;28.60;42.00;;;;;;5076730;28;1432;-38
2022/06/28 09:51:21;;;;;;;;;;;28.50;41.80;;;;;;5093549;28;1984;-37
2022/06/28 09:53:49;;;;;;;;;;;28.60;41.80;;;;;;5099086;28;1292;-37
2022/06/28 09:56:16;;;;;;;;;;;28.60;41.80;;;;;;5095408;28;939;-37
2022/06/28 09:58:43;;;;;;;;;;;28.60;41.90;;;;;;5095611;28;958;-39
2022/06/28 10:01:09;;;;;;;;;;;28.60;41.90;;;;;;5099700;28;897;-37
2022/06/28 10:03:38;;;;;;;;;;;28.50;41.90;;;;;;5098955;28;1000;-37
2022/06/28 10:06:05;;;;;;;;;;;28.60;42.00;;;;;;5100349;28;1006;-38
2022/06/28 10:08:31;;;;;;;;;;;28.50;42.00;;;;;;5097079;28;943;-38
2022/06/28 10:10:58;;;;;;;;;;;28.80;42.00;;;;;;5099600;28;1902;-37
2022/06/28 10:16:15;;;;;;;;;;;28.90;41.40;;;;;;5096572;28;599;-37
2022/06/28 10:18:44;;;;;;;;;;;29.10;41.10;;;;;;5093488;28;1075;-39
2022/06/28 10:21:10;;;;;;;;;;;29.10;41.30;;;;;;5097458;28;1078;-39
2022/06/28 10:23:40;;;;;;;;;;;29.00;41.30;;;;;;5097839;28;1018;-39
2022/06/28 10:26:12;;;;;;;;;;;29.00;41.30;;;;;;5098822;28;984;-40
2022/06/28 10:28:40;;;;;;;;;;;29.00;41.50;;;;;;5098309;28;983;-43
2022/06/28 10:31:27;;;;;;;;;;;29.10;41.10;;;;;;5098170;28;1914;-44
2022/06/28 10:33:55;;;;;;;;;;;29.10;40.70;;;;;;5098362;28;1181;-44
2022/06/28 10:36:23;;;;;;;;;;;29.10;40.40;;;;;;5097997;28;1849;-43
2022/06/28 10:39:08;;;;;;;;;;;29.00;39.80;;;;;;5098477;28;994;-44
2022/06/28 10:41:40;;;;;;;;;;;29.10;39.70;;;;;;5097964;28;963;-43
2022/06/28 10:44:07;;;;;;;;;;;29.00;39.20;;;;;;5097765;28;1018;-38
2022/06/28 10:46:34;;;;;;;;;;;29.10;39.20;;;;;;5098270;28;1019;-38
2022/06/28 10:49:04;;;;;;;;;;;29.10;37.00;;;;;;5096162;28;890;-41
2022/06/28 10:51:31;;;;;;;;;;;29.10;37.10;;;;;;5095627;28;1910;-39
2022/06/28 10:54:02;;;;;;;;;;;29.00;36.60;;;;;;5099513;28;975;-37
2022/06/28 10:56:30;;;;;;;;;;;29.00;36.70;;;;;;5096387;28;1881;-38
2022/06/28 10:58:57;;;;;;;;;;;29.00;37.00;;;;;;5096242;28;1131;-37
2022/06/28 11:01:42;;;;;;;;;;;29.00;37.20;;;;;;5097092;28;944;-39
2022/06/28 11:04:11;;;;;;;;;;;29.00;37.30;;;;;;5095699;28;912;-38
2022/06/28 11:06:40;;;;;;;;;;;29.00;36.90;;;;;;5097477;28;1014;-40
2022/06/28 11:09:09;;;;;;;;;;;29.00;37.40;;;;;;5096805;28;960;-38
2022/06/28 11:11:36;;;;;;;;;;;29.10;37.00;;;;;;5097001;28;1910;-41
2022/06/28 11:14:21;;;;;;;;;;;29.10;36.30;;;;;;5079764;28;1669;-40
2022/06/28 11:16:48;;;;;;;;;;;29.10;36.80;;;;;;5075788;28;988;-40
2022/06/28 11:19:16;;;;;;;;;;;29.10;36.80;;;;;;5076299;28;1036;-39
2022/06/28 11:21:57;;;;;;;;;;;28.90;37.10;;;;;;5006607;28;963;-42
2022/06/28 11:24:24;;;;;;;;;;;28.90;37.20;;;;;;5065205;28;960;-42
2022/06/28 11:29:35;;;;;;;;;;;28.90;37.20;;;;;;5076807;28;905;-43
2022/06/28 11:32:02;;;;;;;;;;;28.80;37.20;;;;;;5076809;28;1992;-41
2022/06/28 11:34:30;;;;;;;;;;;28.80;37.10;;;;;;5076369;28;1000;-43
2022/06/28 11:36:57;;;;;;;;;;;28.90;36.70;;;;;;5076651;28;944;-46
2022/06/28 11:39:24;;;;;;;;;;;28.90;36.80;;;;;;5075458;28;1128;-46
2022/06/28 11:41:52;;;;;;;;;;;28.80;36.80;;;;;;5075848;28;940;-46
2022/06/28 11:44:19;;;;;;;;;;;28.90;36.70;;;;;;5076261;28;959;-46
2022/06/28 11:46:46;;;;;;;;;;;28.90;36.00;;;;;;5076457;28;905;-46
2022/06/28 11:49:13;;;;;;;;;;;28.90;36.40;;;;;;5076832;28;983;-45
2022/06/28 11:51:42;;;;;;;;;;;28.90;36.10;;;;;;5076972;28;1991;-44
2022/06/28 11:54:09;;;;;;;;;;;29.00;36.50;;;;;;5076781;28;920;-45
2022/06/28 11:56:43;;;;;;;;;;;29.00;36.00;;;;;;5075784;28;924;-45
2022/06/28 11:59:09;;;;;;;;;;;29.00;35.40;;;;;;5076529;28;1023;-45
2022/06/28 12:01:38;;;;;;;;;;;29.00;36.40;;;;;;5075753;28;948;-46
2022/06/28 12:04:06;;;;;;;;;;;28.80;35.10;;;;;;5075281;28;1004;-45
2022/06/28 12:06:34;;;;;;;;;;;28.70;35.50;;;;;;5076083;28;1027;-45
2022/06/28 12:09:03;;;;;;;;;;;28.80;35.60;;;;;;5074915;28;981;-45
2022/06/28 12:11:35;;;;;;;;;;;28.70;35.60;;;;;;5074464;28;2004;-45
2022/06/28 12:14:05;;;;;;;;;;;28.80;35.00;;;;;;5075407;28;976;-45
2022/06/28 12:16:33;;;;;;;;;;;28.90;33.90;;;;;;5075568;28;968;-45
2022/06/28 12:19:00;;;;;;;;;;;28.90;34.40;;;;;;5075631;28;1061;-45
2022/06/28 12:21:28;;;;;;;;;;;28.80;34.70;;;;;;5090501;28;1395;-45
2022/06/28 12:23:56;;;;;;;;;;;28.70;34.50;;;;;;5097792;28;1388;-45
2022/06/28 12:26:38;;;;;;;;;;;28.80;34.80;;;;;;5096032;28;1004;-45
2022/06/28 12:29:05;;;;;;;;;;;28.80;34.70;;;;;;5095550;28;1001;-45
2022/06/28 12:31:32;;;;;;;;;;;28.90;34.30;;;;;;5095598;28;1906;-38
2022/06/28 12:33:58;;;;;;;;;;;28.90;34.70;;;;;;5096042;28;933;-38
2022/06/28 12:36:25;;;;;;;;;;;28.70;34.50;;;;;;5095455;28;1006;-40
2022/06/28 12:38:52;;;;;;;;;;;28.70;34.30;;;;;;5095573;28;1043;-39
2022/06/28 12:41:19;;;;;;;;;;;28.60;34.60;;;;;;5096104;28;961;-38
2022/06/28 12:43:47;;;;;;;;;;;28.70;34.90;;;;;;5095256;28;997;-41
2022/06/28 12:46:14;;;;;;;;;;;28.70;34.90;;;;;;5096910;28;948;-37
2022/06/28 12:48:40;;;;;;;;;;;28.60;35.20;;;;;;5091301;28;2195;-38
2022/06/28 12:51:08;;;;;;;;;;;28.60;35.20;;;;;;5094770;28;1906;-37
2022/06/28 12:53:34;;;;;;;;;;;28.60;35.60;;;;;;5094489;28;966;-37
2022/06/28 12:56:01;;;;;;;;;;;28.60;35.80;;;;;;5095034;28;940;-37
2022/06/28 12:58:28;;;;;;;;;;;28.60;36.10;;;;;;5095392;28;996;-37
2022/06/28 13:00:56;;;;;;;;;;;28.60;36.20;;;;;;5093473;28;941;-37
2022/06/28 13:03:23;;;;;;;;;;;28.60;36.40;;;;;;5093502;28;911;-39
2022/06/28 13:05:50;;;;;;;;;;;28.60;36.50;;;;;;5093966;28;1004;-42
2022/06/28 13:08:16;;;;;;;;;;;28.60;36.70;;;;;;5094464;28;1035;-43
2022/06/28 13:10:43;;;;;;;;;;;28.60;36.90;;;;;;5094486;28;1200;-36
2022/06/28 13:13:12;;;;;;;;;;;28.60;37.00;;;;;;5093749;28;1902;-38
2022/06/28 13:15:38;;;;;;;;;;;28.60;37.20;;;;;;5094379;28;1114;-38
2022/06/28 13:18:07;;;;;;;;;;;28.60;37.30;;;;;;5094492;28;1039;-39
2022/06/28 13:20:34;;;;;;;;;;;28.60;37.40;;;;;;5093959;28;875;-37
2022/06/28 13:23:00;;;;;;;;;;;28.60;37.40;;;;;;5094078;28;996;-36
2022/06/28 13:25:27;;;;;;;;;;;28.60;37.40;;;;;;5092985;28;1010;-36
2022/06/28 13:27:54;;;;;;;;;;;28.60;37.50;;;;;;5094072;28;857;-39
2022/06/28 13:30:21;;;;;;;;;;;28.60;37.60;;;;;;5094927;28;991;-40
2022/06/28 13:32:47;;;;;;;;;;;28.60;37.60;;;;;;5094529;28;1906;-38
2022/06/28 13:35:16;;;;;;;;;;;28.60;37.80;;;;;;5094418;28;984;-40
2022/06/28 13:37:43;;;;;;;;;;;28.60;37.80;;;;;;5095232;28;1004;-40
2022/06/28 13:40:10;;;;;;;;;;;28.60;37.80;;;;;;5094810;28;1184;-39
2022/06/28 13:42:37;;;;;;;;;;;28.70;37.80;;;;;;5094067;28;1100;-37
2022/06/28 13:45:07;;;;;;;;;;;28.70;37.80;;;;;;5094846;28;941;-38
2022/06/28 13:47:34;;;;;;;;;;;28.70;37.80;;;;;;5094033;28;1000;-40
2022/06/28 13:50:01;;;;;;;;;;;28.70;38.00;;;;;;5093649;28;999;-39
2022/06/28 13:52:29;;;;;;;;;;;28.70;38.00;;;;;;5092940;28;1910;-38
2022/06/28 13:54:56;;;;;;;;;;;28.70;38.10;;;;;;5092734;28;1708;-39
2022/06/28 13:57:25;;;;;;;;;;;28.70;38.10;;;;;;5092152;28;1000;-38
2022/06/28 13:59:52;;;;;;;;;;;28.70;38.20;;;;;;5094095;28;984;-40
2022/06/28 14:02:18;;;;;;;;;;;28.70;38.20;;;;;;5093444;28;909;-40
2022/06/28 14:04:46;;;;;;;;;;;28.70;38.40;;;;;;5092596;28;988;-37
2022/06/28 14:07:12;;;;;;;;;;;28.70;38.40;;;;;;5093647;28;984;-37
2022/06/28 14:09:42;;;;;;;;;;;28.70;38.50;;;;;;5094313;28;990;-37
2022/06/28 14:12:09;;;;;;;;;;;28.70;38.50;;;;;;5090485;28;1917;-38
2022/06/28 14:14:36;;;;;;;;;;;28.70;38.50;;;;;;5093711;28;1068;-39
2022/06/28 14:17:03;;;;;;;;;;;28.80;38.60;;;;;;5094988;28;992;-39
2022/06/28 14:19:30;;;;;;;;;;;28.80;38.50;;;;;;5093199;28;1204;-40
2022/06/28 14:21:57;;;;;;;;;;;28.80;38.60;;;;;;5093834;28;1036;-37
2022/06/28 14:24:24;;;;;;;;;;;28.90;38.60;;;;;;5094835;28;1004;-37
2022/06/28 14:26:52;;;;;;;;;;;28.90;38.60;;;;;;5094325;28;956;-37
2022/06/28 14:29:19;;;;;;;;;;;28.90;38.60;;;;;;5093447;28;959;-38
2022/06/28 14:31:46;;;;;;;;;;;28.80;38.70;;;;;;5094994;28;1902;-37
2022/06/28 14:34:13;;;;;;;;;;;28.90;38.90;;;;;;5094199;28;980;-37
2022/06/28 14:36:40;;;;;;;;;;;28.90;38.90;;;;;;5093738;28;1105;-37
2022/06/28 14:39:07;;;;;;;;;;;28.90;38.90;;;;;;5094912;28;1007;-37
2022/06/28 14:41:33;;;;;;;;;;;28.90;38.90;;;;;;5098364;28;952;-38
2022/06/28 14:44:01;;;;;;;;;;;28.90;38.90;;;;;;5098944;28;943;-37
2022/06/28 14:46:28;;;;;;;;;;;29.00;38.80;;;;;;5097197;28;892;-38
2022/06/28 14:48:55;;;;;;;;;;;29.10;38.70;;;;;;5096755;28;980;-37
2022/06/28 14:51:22;;;;;;;;;;;29.20;39.70;;;;;;5096280;28;995;-36
2022/06/28 14:53:49;;;;;;;;;;;29.10;38.60;;;;;;5096158;28;1902;-36
2022/06/28 14:56:16;;;;;;;;;;;29.20;38.50;;;;;;5095519;28;884;-37
2022/06/28 14:58:43;;;;;;;;;;;29.20;38.60;;;;;;5098703;28;932;-41
2022/06/28 15:01:11;;;;;;;;;;;29.20;38.70;;;;;;5095532;28;932;-36